Terminal Aerodrome Forecast
Issued by NWS

Home | Current Version | Previous Version | Text Only | Print | Product List | Glossary On
Versions: 1 2 3 4 5 6 7 8 9 10 11 12 13 14 15 16
162
FTUS45 KRIW 241122
TAFCPR
TAF
KCPR 241122Z 2412/2512 23007KT P6SM SCT100
     FM241700 10011KT P6SM SCT100
     FM242000 10013G20KT P6SM VCTS SCT050CB BKN090
     FM250200 VRB06KT P6SM SCT060=

USA.gov is the U.S. government's official web portal to all federal, state and local government web resources and services.